Time;durP1;ratioP1;P1;durP2;ratioP2;P2;SDS_P1;SDS_P2;PMS_P1;PMS_P2;Temp;Humidity;BMP_temperature;BMP_pressure;BME280_temperature;BME280_humidity;BME280_pressure;Samples;Min_cycle;Max_cycle;Signal;HPM_P1;HPM_P2
2024/01/02 00:00:41;;;;;;;9.25;2.35;;;;;;;;;;5142483;27;20115;-72
2024/01/02 00:03:11;;;;;;;7.70;2.45;;;;;;;;;;5143093;27;20049;-72
2024/01/02 00:05:37;;;;;;;9.00;2.37;;;;;;;;;;5143018;27;20046;-71
2024/01/02 00:08:04;;;;;;;6.25;2.13;;;;;;;;;;5142949;27;20047;-71
2024/01/02 00:10:31;;;;;;;6.65;2.70;;;;;;;;;;5142283;27;20035;-71
2024/01/02 00:12:58;;;;;;;6.90;1.95;;;;;;;;;;5143495;27;20114;-72
2024/01/02 00:15:25;;;;;;;7.60;2.08;;;;;;;;;;5142246;27;20054;-71
2024/01/02 00:17:52;;;;;;;9.60;2.58;;;;;;;;;;5142572;27;20088;-71
2024/01/02 00:20:19;;;;;;;8.48;2.92;;;;;;;;;;5142574;27;20054;-72
2024/01/02 00:22:46;;;;;;;6.43;2.33;;;;;;;;;;5141611;27;20051;-72
2024/01/02 00:25:12;;;;;;;9.13;2.42;;;;;;;;;;5124511;27;20043;-72
2024/01/02 00:27:39;;;;;;;9.60;2.67;;;;;;;;;;5143328;27;20039;-71
2024/01/02 00:30:08;;;;;;;7.88;2.28;;;;;;;;;;5142341;27;20097;-72
2024/01/02 00:32:35;;;;;;;5.03;2.20;;;;;;;;;;5142413;27;20046;-72
2024/01/02 00:35:03;;;;;;;9.35;2.50;;;;;;;;;;5142271;27;20293;-71
2024/01/02 00:37:30;;;;;;;6.85;2.70;;;;;;;;;;5142034;27;20421;-72
2024/01/02 00:39:57;;;;;;;6.80;2.10;;;;;;;;;;5141784;27;20406;-71
2024/01/02 00:42:23;;;;;;;6.20;2.05;;;;;;;;;;5142723;27;20047;-72
2024/01/02 00:44:50;;;;;;;5.97;2.38;;;;;;;;;;5143019;27;20323;-72
2024/01/02 00:47:20;;;;;;;7.32;2.30;;;;;;;;;;5143123;27;20370;-71
2024/01/02 00:49:48;;;;;;;;;;;;;;;;;;5143866;27;20050;-72
2024/01/02 00:52:15;;;;;;;5.93;1.77;;;;;;;;;;5142991;27;20477;-72
2024/01/02 00:54:42;;;;;;;6.28;2.30;;;;;;;;;;5142399;27;20043;-72
2024/01/02 00:57:08;;;;;;;4.97;1.67;;;;;;;;;;5141658;27;20073;-71
2024/01/02 00:59:35;;;;;;;5.75;1.75;;;;;;;;;;5141753;27;20051;-71
2024/01/02 01:02:02;;;;;;;4.45;1.73;;;;;;;;;;5142198;27;20043;-72
2024/01/02 01:04:28;;;;;;;6.70;1.70;;;;;;;;;;5141205;27;20053;-72
2024/01/02 01:06:55;;;;;;;4.95;1.55;;;;;;;;;;5141218;27;20055;-72
2024/01/02 01:09:22;;;;;;;4.88;1.65;;;;;;;;;;5141792;27;20043;-72
2024/01/02 01:11:49;;;;;;;3.58;1.65;;;;;;;;;;5142311;27;20047;-72
2024/01/02 01:14:15;;;;;;;8.93;1.77;;;;;;;;;;5142178;27;20118;-72
2024/01/02 01:16:42;;;;;;;3.97;1.63;;;;;;;;;;5141585;27;20042;-71
2024/01/02 01:19:09;;;;;;;5.07;1.88;;;;;;;;;;5141851;27;20047;-71
2024/01/02 01:21:35;;;;;;;8.15;2.40;;;;;;;;;;5141670;27;20327;-72
2024/01/02 01:24:02;;;;;;;4.65;1.73;;;;;;;;;;5139461;27;20053;-71
2024/01/02 01:26:29;;;;;;;4.20;1.58;;;;;;;;;;5141453;27;20463;-71
2024/01/02 01:28:56;;;;;;;4.72;1.48;;;;;;;;;;5141663;27;20053;-71
2024/01/02 01:31:23;;;;;;;5.20;1.90;;;;;;;;;;5141178;27;20084;-71
2024/01/02 01:33:50;;;;;;;5.43;1.48;;;;;;;;;;5142452;27;20043;-72
2024/01/02 01:36:17;;;;;;;7.10;1.77;;;;;;;;;;5142424;27;20046;-72
2024/01/02 01:38:44;;;;;;;2.78;1.20;;;;;;;;;;5142136;27;20043;-72
2024/01/02 01:41:10;;;;;;;3.17;1.17;;;;;;;;;;5142189;27;20106;-71
2024/01/02 01:43:37;;;;;;;5.15;1.48;;;;;;;;;;5142560;27;20043;-71
2024/01/02 01:46:05;;;;;;;4.78;1.40;;;;;;;;;;5141602;27;20047;-71
2024/01/02 01:48:33;;;;;;;4.55;1.70;;;;;;;;;;5142001;27;20049;-72
2024/01/02 01:51:00;;;;;;;2.80;1.27;;;;;;;;;;5141783;27;20039;-72
2024/01/02 01:53:27;;;;;;;5.43;1.95;;;;;;;;;;5141547;28;20078;-71
2024/01/02 01:55:55;;;;;;;2.60;1.23;;;;;;;;;;5141873;27;20043;-72
2024/01/02 01:58:21;;;;;;;4.68;1.35;;;;;;;;;;5141921;28;20088;-71
2024/01/02 02:00:48;;;;;;;5.25;1.40;;;;;;;;;;5142020;28;20387;-72
2024/01/02 02:03:17;;;;;;;4.88;1.35;;;;;;;;;;5141984;28;20070;-72
2024/01/02 02:05:45;;;;;;;4.10;1.95;;;;;;;;;;5142102;28;20043;-71
2024/01/02 02:08:12;;;;;;;5.47;1.98;;;;;;;;;;5141897;27;20124;-72
2024/01/02 02:10:38;;;;;;;6.05;2.03;;;;;;;;;;5141613;27;20047;-71
2024/01/02 02:13:05;;;;;;;4.93;2.15;;;;;;;;;;5141428;28;20047;-72
2024/01/02 02:15:34;;;;;;;6.28;1.83;;;;;;;;;;5141862;28;20043;-71
2024/01/02 02:18:00;;;;;;;4.30;1.42;;;;;;;;;;5141981;27;20043;-72
2024/01/02 02:20:27;;;;;;;4.30;2.10;;;;;;;;;;5141739;28;20051;-71
2024/01/02 02:22:54;;;;;;;7.13;1.83;;;;;;;;;;5142513;27;20088;-71
2024/01/02 02:25:21;;;;;;;10.40;2.53;;;;;;;;;;5145756;27;20118;-71
2024/01/02 02:27:48;;;;;;;2.72;1.55;;;;;;;;;;5145439;27;20110;-72
2024/01/02 02:30:15;;;;;;;5.35;1.65;;;;;;;;;;5146014;27;20050;-71
2024/01/02 02:32:42;;;;;;;6.18;1.80;;;;;;;;;;5145793;27;20294;-71
2024/01/02 02:35:09;;;;;;;5.18;2.13;;;;;;;;;;5146072;27;20043;-72
2024/01/02 02:37:35;;;;;;;7.18;2.60;;;;;;;;;;5145559;27;20051;-72
2024/01/02 02:40:03;;;;;;;5.20;2.50;;;;;;;;;;5145477;27;20062;-71
2024/01/02 02:42:30;;;;;;;5.95;2.35;;;;;;;;;;5127076;27;20059;-71
2024/01/02 02:44:57;;;;;;;6.18;2.85;;;;;;;;;;5145008;27;20082;-72
2024/01/02 02:47:24;;;;;;;4.05;2.35;;;;;;;;;;5144463;27;20227;-72
2024/01/02 02:49:52;;;;;;;6.85;2.88;;;;;;;;;;5145220;27;20350;-71
2024/01/02 02:52:19;;;;;;;6.93;3.35;;;;;;;;;;5145203;27;20277;-71
2024/01/02 02:54:46;;;;;;;4.53;2.63;;;;;;;;;;5145227;27;20070;-71
2024/01/02 02:57:13;;;;;;;6.18;2.67;;;;;;;;;;5145529;27;20065;-72
2024/01/02 02:59:39;;;;;;;5.85;2.78;;;;;;;;;;5145399;27;20081;-72
2024/01/02 03:02:06;;;;;;;5.03;2.58;;;;;;;;;;5145057;27;20374;-72
2024/01/02 03:04:33;;;;;;;6.78;3.20;;;;;;;;;;5144965;27;20418;-71
2024/01/02 03:07:00;;;;;;;7.22;2.95;;;;;;;;;;5144827;27;20277;-71
2024/01/02 03:09:26;;;;;;;9.55;3.17;;;;;;;;;;5144996;27;20050;-71
2024/01/02 03:11:53;;;;;;;7.05;3.10;;;;;;;;;;5145212;27;20043;-71
2024/01/02 03:14:20;;;;;;;7.03;2.72;;;;;;;;;;5145335;27;20046;-73
2024/01/02 03:16:46;;;;;;;5.65;2.75;;;;;;;;;;5145133;27;20065;-72
2024/01/02 03:19:13;;;;;;;6.65;3.00;;;;;;;;;;5144756;27;20055;-73
2024/01/02 03:21:40;;;;;;;5.38;2.72;;;;;;;;;;5144462;27;20360;-71
2024/01/02 03:24:07;;;;;;;7.53;2.90;;;;;;;;;;5144754;27;20043;-72
2024/01/02 03:26:34;;;;;;;6.60;2.53;;;;;;;;;;5144352;27;20051;-72
2024/01/02 03:29:00;;;;;;;5.47;2.53;;;;;;;;;;5144051;27;20043;-71
2024/01/02 03:31:27;;;;;;;6.45;2.63;;;;;;;;;;5143796;27;20043;-72
2024/01/02 03:33:55;;;;;;;8.18;3.30;;;;;;;;;;5144317;27;20390;-72
2024/01/02 03:36:22;;;;;;;5.32;2.45;;;;;;;;;;5143218;27;20379;-71
2024/01/02 03:38:49;;;;;;;4.78;2.30;;;;;;;;;;5144237;27;20043;-72
2024/01/02 03:41:16;;;;;;;5.22;2.38;;;;;;;;;;5144789;27;20043;-71
2024/01/02 03:43:43;;;;;;;4.78;2.08;;;;;;;;;;5144198;27;20220;-72
2024/01/02 03:46:11;;;;;;;5.93;1.98;;;;;;;;;;5144517;27;20050;-71
2024/01/02 03:48:38;;;;;;;10.80;2.58;;;;;;;;;;5144121;27;20075;-72
2024/01/02 03:51:05;;;;;;;2.63;1.50;;;;;;;;;;5144063;27;20124;-72
2024/01/02 03:53:32;;;;;;;6.80;2.17;;;;;;;;;;5144368;27;20043;-72
2024/01/02 03:55:59;;;;;;;3.80;2.00;;;;;;;;;;5144244;27;20178;-72
2024/01/02 03:58:27;;;;;;;6.05;1.70;;;;;;;;;;5144278;27;20043;-71
2024/01/02 04:00:54;;;;;;;4.05;1.67;;;;;;;;;;5144295;27;20054;-72
2024/01/02 04:03:22;;;;;;;4.32;1.50;;;;;;;;;;5143829;27;20061;-71
2024/01/02 04:05:50;;;;;;;6.07;1.55;;;;;;;;;;5126156;27;20078;-71
2024/01/02 04:08:23;;;;;;;2.35;1.20;;;;;;;;;;5143950;27;20081;-72
2024/01/02 04:10:49;;;;;;;3.90;1.33;;;;;;;;;;5125564;27;20043;-71
2024/01/02 04:13:16;;;;;;;3.17;1.20;;;;;;;;;;5143726;27;20043;-72
2024/01/02 04:15:43;;;;;;;2.42;1.17;;;;;;;;;;5143955;27;20042;-71
2024/01/02 04:18:10;;;;;;;6.28;1.42;;;;;;;;;;5143582;27;20047;-72
2024/01/02 04:20:37;;;;;;;2.60;1.05;;;;;;;;;;5143593;27;20355;-72
2024/01/02 04:23:04;;;;;;;3.95;1.08;;;;;;;;;;5143125;27;20046;-72
2024/01/02 04:25:31;;;;;;;5.20;1.20;;;;;;;;;;5142614;27;20051;-72
2024/01/02 04:27:57;;;;;;;2.20;1.13;;;;;;;;;;5142974;27;20046;-72
2024/01/02 04:30:24;;;;;;;1.83;1.13;;;;;;;;;;5142611;27;20289;-72
2024/01/02 04:32:51;;;;;;;5.47;1.20;;;;;;;;;;5142868;27;20074;-73
2024/01/02 04:35:18;;;;;;;2.72;1.02;;;;;;;;;;5143759;27;20062;-73
2024/01/02 04:37:45;;;;;;;4.25;1.40;;;;;;;;;;5143135;27;20299;-73
2024/01/02 04:40:12;;;;;;;3.92;1.48;;;;;;;;;;5143471;27;20387;-73
2024/01/02 04:42:39;;;;;;;3.58;1.60;;;;;;;;;;5143236;27;20039;-73
2024/01/02 04:45:07;;;;;;;2.50;1.48;;;;;;;;;;5143164;27;20085;-73
2024/01/02 04:47:34;;;;;;;4.35;1.20;;;;;;;;;;5124861;27;20257;-73
2024/01/02 04:50:01;;;;;;;2.67;1.30;;;;;;;;;;5143293;27;20051;-74
2024/01/02 04:52:29;;;;;;;3.63;1.30;;;;;;;;;;5143035;27;20092;-73
2024/01/02 04:54:59;;;;;;;2.55;1.02;;;;;;;;;;5142944;27;20078;-73
2024/01/02 04:57:26;;;;;;;2.55;1.15;;;;;;;;;;5142985;27;20043;-73
2024/01/02 04:59:52;;;;;;;3.15;1.25;;;;;;;;;;5142871;27;20348;-73
2024/01/02 05:02:22;;;;;;;3.38;1.38;;;;;;;;;;5143010;27;20053;-73
2024/01/02 05:04:51;;;;;;;5.45;1.40;;;;;;;;;;5142723;27;20049;-73
2024/01/02 05:07:18;;;;;;;3.67;1.40;;;;;;;;;;5142964;27;20209;-73
2024/01/02 05:09:44;;;;;;;4.68;1.30;;;;;;;;;;5142503;27;20043;-73
2024/01/02 05:12:13;;;;;;;3.42;1.20;;;;;;;;;;5142685;27;20047;-73
2024/01/02 05:14:39;;;;;;;2.90;1.17;;;;;;;;;;5142836;27;20065;-71
2024/01/02 05:17:08;;;;;;;1.92;1.00;;;;;;;;;;5142905;27;20051;-72
2024/01/02 05:19:35;;;;;;;1.90;1.15;;;;;;;;;;5141834;27;20240;-71
2024/01/02 05:22:03;;;;;;;4.65;1.60;;;;;;;;;;5142035;27;20065;-72
2024/01/02 05:24:30;;;;;;;4.78;1.38;;;;;;;;;;5141615;27;20345;-71
2024/01/02 05:26:58;;;;;;;5.15;1.45;;;;;;;;;;5142550;27;20273;-72
2024/01/02 05:29:25;;;;;;;4.20;1.60;;;;;;;;;;5142148;27;20053;-71
2024/01/02 05:31:52;;;;;;;8.32;1.27;;;;;;;;;;5142173;27;20374;-72
2024/01/02 05:34:19;;;;;;;3.55;1.27;;;;;;;;;;5142639;27;20050;-71
2024/01/02 05:36:46;;;;;;;3.53;1.00;;;;;;;;;;5142601;27;20043;-72
2024/01/02 05:39:13;;;;;;;3.42;0.98;;;;;;;;;;5141848;27;20047;-71
2024/01/02 05:41:40;;;;;;;4.32;1.20;;;;;;;;;;5142071;27;20236;-73
2024/01/02 05:44:07;;;;;;;5.53;1.30;;;;;;;;;;5142108;27;20039;-72
2024/01/02 05:46:34;;;;;;;5.80;1.27;;;;;;;;;;5141825;27;20087;-72
2024/01/02 05:49:01;;;;;;;3.13;0.90;;;;;;;;;;5142160;27;20051;-73
2024/01/02 05:51:28;;;;;;;3.90;1.17;;;;;;;;;;5124075;28;20091;-73
2024/01/02 05:53:55;;;;;;;3.60;1.30;;;;;;;;;;5142098;27;20123;-72
2024/01/02 05:56:22;;;;;;;6.45;1.42;;;;;;;;;;5141930;28;20057;-71
2024/01/02 05:58:49;;;;;;;4.07;1.00;;;;;;;;;;5141363;27;20049;-72
2024/01/02 06:01:15;;;;;;;5.32;1.35;;;;;;;;;;5141819;28;20336;-73
2024/01/02 06:03:43;;;;;;;4.05;1.10;;;;;;;;;;5141742;28;20078;-72
2024/01/02 06:06:10;;;;;;;2.72;1.00;;;;;;;;;;5142242;28;20064;-71
2024/01/02 06:08:41;;;;;;;4.68;1.75;;;;;;;;;;5141797;28;20050;-72
2024/01/02 06:11:10;;;;;;;2.35;0.93;;;;;;;;;;5141871;28;20164;-72
2024/01/02 06:13:37;;;;;;;4.95;1.15;;;;;;;;;;5141766;28;20227;-72
2024/01/02 06:16:03;;;;;;;3.20;1.13;;;;;;;;;;5141889;28;20080;-71
2024/01/02 06:18:30;;;;;;;4.47;1.30;;;;;;;;;;5141491;28;20401;-72
2024/01/02 06:20:57;;;;;;;1.88;1.20;;;;;;;;;;5142014;28;20092;-71
2024/01/02 06:23:26;;;;;;;4.70;1.50;;;;;;;;;;5142227;28;20088;-72
2024/01/02 06:25:53;;;;;;;3.45;1.25;;;;;;;;;;5141471;28;20055;-72
2024/01/02 06:28:20;;;;;;;4.30;1.30;;;;;;;;;;5141360;28;20051;-71
2024/01/02 06:30:46;;;;;;;1.48;0.98;;;;;;;;;;5141674;28;20047;-72
2024/01/02 06:33:13;;;;;;;2.17;0.90;;;;;;;;;;5141424;28;20056;-72
2024/01/02 06:35:40;;;;;;;2.58;1.00;;;;;;;;;;5141071;28;20068;-71
2024/01/02 06:38:08;;;;;;;2.80;1.23;;;;;;;;;;5123709;28;20047;-72
2024/01/02 06:40:36;;;;;;;5.38;1.25;;;;;;;;;;5141115;28;20373;-72
2024/01/02 06:43:04;;;;;;;3.53;1.05;;;;;;;;;;5142009;28;20096;-72
2024/01/02 06:45:34;;;;;;;2.38;1.02;;;;;;;;;;5141459;28;20055;-71
2024/01/02 06:48:00;;;;;;;4.72;1.10;;;;;;;;;;5141583;28;20049;-72
2024/01/02 06:50:27;;;;;;;3.88;0.95;;;;;;;;;;5141236;28;20047;-72
2024/01/02 06:52:54;;;;;;;3.58;1.30;;;;;;;;;;5141617;28;20168;-71
2024/01/02 06:55:21;;;;;;;2.40;1.13;;;;;;;;;;5140930;28;20047;-72
2024/01/02 06:57:47;;;;;;;3.17;1.05;;;;;;;;;;5141578;28;20047;-72
2024/01/02 07:00:14;;;;;;;5.38;1.33;;;;;;;;;;5141200;28;20115;-72
2024/01/02 07:02:43;;;;;;;3.47;1.25;;;;;;;;;;5141302;27;20083;-71
2024/01/02 07:05:14;;;;;;;2.60;0.90;;;;;;;;;;5141185;28;20075;-71
2024/01/02 07:07:41;;;;;;;6.25;1.30;;;;;;;;;;5141336;28;20366;-71
2024/01/02 07:10:08;;;;;;;3.60;1.15;;;;;;;;;;5125483;27;20126;-71
2024/01/02 07:12:35;;;;;;;4.72;1.42;;;;;;;;;;5145186;27;20043;-71
2024/01/02 07:15:06;;;;;;;5.10;1.10;;;;;;;;;;5145205;27;20119;-71
2024/01/02 07:17:33;;;;;;;3.03;1.33;;;;;;;;;;5145144;27;20043;-71
2024/01/02 07:20:00;;;;;;;2.05;1.10;;;;;;;;;;5144671;27;20050;-71
2024/01/02 07:22:27;;;;;;;2.53;1.17;;;;;;;;;;5144645;27;20075;-71
2024/01/02 07:24:53;;;;;;;4.88;1.45;;;;;;;;;;5144448;27;20103;-71
2024/01/02 07:27:21;;;;;;;3.08;1.05;;;;;;;;;;5144785;27;20113;-71
2024/01/02 07:29:48;;;;;;;4.70;1.27;;;;;;;;;;5144216;27;20035;-72
2024/01/02 07:32:15;;;;;;;2.97;1.30;;;;;;;;;;5144359;27;20043;-72
2024/01/02 07:34:42;;;;;;;4.38;1.40;;;;;;;;;;5144132;27;20096;-72
2024/01/02 07:37:10;;;;;;;2.53;1.20;;;;;;;;;;5144494;27;20047;-71
2024/01/02 07:39:37;;;;;;;5.50;1.60;;;;;;;;;;5143843;27;20136;-73
2024/01/02 07:42:05;;;;;;;5.57;1.50;;;;;;;;;;5144202;27;20051;-71
2024/01/02 07:44:32;;;;;;;4.97;1.25;;;;;;;;;;5144015;27;20039;-72
2024/01/02 07:47:00;;;;;;;2.45;1.30;;;;;;;;;;5143873;27;20043;-72
2024/01/02 07:49:26;;;;;;;4.68;1.45;;;;;;;;;;5143814;27;20364;-72
2024/01/02 07:51:54;;;;;;;3.38;1.17;;;;;;;;;;5144272;27;20047;-72
2024/01/02 07:54:21;;;;;;;4.60;1.38;;;;;;;;;;5144039;27;20249;-72
2024/01/02 07:56:48;;;;;;;2.58;1.20;;;;;;;;;;5144280;27;20103;-71
2024/01/02 07:59:19;;;;;;;5.20;1.10;;;;;;;;;;5143968;27;20058;-72
2024/01/02 08:01:50;;;;;;;2.15;1.02;;;;;;;;;;5143843;27;20110;-71
2024/01/02 08:04:16;;;;;;;5.00;1.30;;;;;;;;;;5143431;27;20045;-72
2024/01/02 08:06:43;;;;;;;3.20;1.52;;;;;;;;;;5143121;27;20287;-72
2024/01/02 08:09:10;;;;;;;4.15;1.45;;;;;;;;;;5143032;27;20039;-71
2024/01/02 08:11:37;;;;;;;2.85;1.15;;;;;;;;;;5143522;27;20039;-71
2024/01/02 08:14:04;;;;;;;4.43;1.58;;;;;;;;;;5143780;27;20050;-71
2024/01/02 08:16:32;;;;;;;5.97;1.92;;;;;;;;;;5143918;27;20049;-71
2024/01/02 08:19:00;;;;;;;6.13;1.55;;;;;;;;;;5143565;27;20231;-72
2024/01/02 08:21:27;;;;;;;6.47;1.73;;;;;;;;;;5143185;27;20084;-72
2024/01/02 08:23:53;;;;;;;4.82;1.50;;;;;;;;;;5143925;27;20102;-72
2024/01/02 08:26:20;;;;;;;3.40;1.13;;;;;;;;;;5143319;27;20538;-72
2024/01/02 08:28:47;;;;;;;4.35;1.30;;;;;;;;;;5133328;27;20061;-72
2024/01/02 08:31:14;;;;;;;7.22;1.38;;;;;;;;;;5140826;27;20102;-72
2024/01/02 08:33:41;;;;;;;6.20;1.27;;;;;;;;;;5141236;27;20043;-72
2024/01/02 08:36:10;;;;;;;2.95;1.50;;;;;;;;;;5140441;27;20097;-73
2024/01/02 08:38:37;;;;;;;4.85;1.50;;;;;;;;;;5141218;27;20078;-72
2024/01/02 08:41:05;;;;;;;1.90;0.90;;;;;;;;;;5140754;27;20079;-73
2024/01/02 08:43:31;;;;;;;4.97;1.45;;;;;;;;;;5142042;27;20533;-73
2024/01/02 08:45:58;;;;;;;3.38;1.20;;;;;;;;;;5141719;27;20075;-72
2024/01/02 08:48:25;;;;;;;4.15;1.40;;;;;;;;;;5139925;27;20327;-73
2024/01/02 08:50:52;;;;;;;3.83;1.33;;;;;;;;;;5140497;27;20047;-74
2024/01/02 08:53:19;;;;;;;5.50;1.58;;;;;;;;;;5134568;27;20046;-74
2024/01/02 08:55:45;;;;;;;3.80;1.20;;;;;;;;;;5140485;27;20647;-74
2024/01/02 08:58:12;;;;;;;4.60;1.23;;;;;;;;;;5136454;27;20043;-73
2024/01/02 09:00:39;;;;;;;2.65;1.13;;;;;;;;;;5139894;27;20074;-73
2024/01/02 09:03:06;;;;;;;3.85;1.02;;;;;;;;;;5139172;27;20055;-74
2024/01/02 09:05:33;;;;;;;2.17;1.05;;;;;;;;;;5140337;27;20078;-73
2024/01/02 09:08:00;;;;;;;5.45;1.05;;;;;;;;;;5139000;27;20051;-76
2024/01/02 09:10:26;;;;;;;6.65;1.40;;;;;;;;;;5138792;27;20078;-74
2024/01/02 09:12:53;;;;;;;2.42;1.05;;;;;;;;;;5139822;27;20070;-73
2024/01/02 09:15:22;;;;;;;3.30;1.02;;;;;;;;;;5141106;27;20049;-73
2024/01/02 09:17:49;;;;;;;4.47;1.10;;;;;;;;;;5140817;27;20339;-74
2024/01/02 09:20:16;;;;;;;3.40;1.17;;;;;;;;;;5139709;27;20339;-73
2024/01/02 09:22:42;;;;;;;2.88;1.00;;;;;;;;;;5140994;27;20049;-71
2024/01/02 09:25:12;;;;;;;3.35;1.42;;;;;;;;;;5140212;27;20078;-73
2024/01/02 09:27:40;;;;;;;4.13;1.40;;;;;;;;;;5141281;27;20043;-72
2024/01/02 09:30:12;;;;;;;6.28;1.92;;;;;;;;;;5140138;27;20240;-73
2024/01/02 09:32:45;;;;;;;5.68;1.85;;;;;;;;;;5121630;27;20051;-73
2024/01/02 09:35:14;;;;;;;5.32;2.05;;;;;;;;;;5140455;27;20043;-74
2024/01/02 09:37:41;;;;;;;4.90;1.70;;;;;;;;;;5140493;27;20258;-74
2024/01/02 09:40:20;;;;;;;3.35;1.52;;;;;;;;;;5139948;27;20039;-73
2024/01/02 09:43:04;;;;;;;5.18;2.15;;;;;;;;;;5140107;27;20254;-73
2024/01/02 09:45:42;;;;;;;6.40;1.42;;;;;;;;;;5140661;27;20051;-73
2024/01/02 09:48:31;;;;;;;8.00;1.60;;;;;;;;;;5140418;27;20118;-71
2024/01/02 09:51:07;;;;;;;4.43;1.27;;;;;;;;;;5139543;27;20406;-72
2024/01/02 09:53:59;;;;;;;2.80;1.30;;;;;;;;;;5140505;27;20047;-73
2024/01/02 09:57:03;;;;;;;6.65;1.58;;;;;;;;;;5140516;27;20054;-73
2024/01/02 10:00:03;;;;;;;1.95;1.13;;;;;;;;;;5123264;28;20061;-74
2024/01/02 10:02:44;;;;;;;1.98;1.10;;;;;;;;;;5140514;28;20070;-72
2024/01/02 10:05:29;;;;;;;2.75;1.10;;;;;;;;;;5139527;28;20083;-73
2024/01/02 10:08:24;;;;;;;5.18;1.40;;;;;;;;;;5140980;28;20315;-72
2024/01/02 10:10:57;;;;;;;3.60;1.38;;;;;;;;;;5140249;28;20227;-73
2024/01/02 10:13:29;;;;;;;7.70;1.45;;;;;;;;;;5140833;28;20131;-73
2024/01/02 10:16:11;;;;;;;4.25;1.40;;;;;;;;;;5139756;28;20070;-74
2024/01/02 10:19:23;;;;;;;4.90;1.40;;;;;;;;;;5138704;28;20054;-74
2024/01/02 10:22:03;;;;;;;1.73;0.85;;;;;;;;;;5035059;28;20057;-75
2024/01/02 10:24:39;;;;;;;3.95;1.20;;;;;;;;;;5128258;28;20467;-74
2024/01/02 10:27:12;;;;;;;5.60;1.20;;;;;;;;;;5139543;28;20086;-74
2024/01/02 10:30:06;;;;;;;4.40;1.20;;;;;;;;;;5138876;28;20506;-73
2024/01/02 10:32:45;;;;;;;6.43;1.30;;;;;;;;;;5139376;28;20093;-71
2024/01/02 10:35:20;;;;;;;3.75;1.17;;;;;;;;;;5140082;28;20046;-71
2024/01/02 10:38:08;;;;;;;3.42;1.25;;;;;;;;;;5139335;28;20298;-73
2024/01/02 10:40:50;;;;;;;2.53;1.10;;;;;;;;;;5139211;28;20046;-72
2024/01/02 10:43:32;;;;;;;7.55;1.38;;;;;;;;;;5139919;27;20104;-74
2024/01/02 10:46:16;;;;;;;5.00;1.20;;;;;;;;;;5143457;27;20074;-71
2024/01/02 10:48:54;;;;;;;4.65;1.35;;;;;;;;;;5143641;27;20361;-72
2024/01/02 10:51:41;;;;;;;5.20;1.23;;;;;;;;;;5143437;27;20043;-74
2024/01/02 10:54:46;;;;;;;4.32;1.42;;;;;;;;;;5143200;27;20227;-74
2024/01/02 10:57:38;;;;;;;6.30;1.27;;;;;;;;;;5095269;27;20046;-75
2024/01/02 11:00:08;;;;;;;4.65;1.50;;;;;;;;;;5142813;27;20078;-72
2024/01/02 11:02:51;;;;;;;3.72;1.60;;;;;;;;;;5142898;27;20420;-72
2024/01/02 11:05:31;;;;;;;5.55;1.30;;;;;;;;;;5143305;27;20046;-72
2024/01/02 11:08:40;;;;;;;5.93;1.70;;;;;;;;;;5143245;27;20043;-72
2024/01/02 11:11:10;;;;;;;3.00;1.00;;;;;;;;;;5125346;27;20055;-74
2024/01/02 11:13:39;;;;;;;4.23;1.50;;;;;;;;;;5140487;27;20040;-72
2024/01/02 11:16:21;;;;;;;5.22;1.25;;;;;;;;;;5133623;27;20487;-73
2024/01/02 11:18:55;;;;;;;5.50;1.70;;;;;;;;;;5131693;27;20046;-75
2024/01/02 11:21:44;;;;;;;7.40;1.95;;;;;;;;;;5127611;27;20040;-72
2024/01/02 11:24:15;;;;;;;3.97;1.67;;;;;;;;;;5119728;27;20511;-70
2024/01/02 11:26:44;;;;;;;6.28;1.98;;;;;;;;;;5129355;27;20062;-72
2024/01/02 11:29:18;;;;;;;5.25;2.05;;;;;;;;;;5136847;27;20050;-72
2024/01/02 11:31:48;;;;;;;4.55;1.77;;;;;;;;;;5132078;27;20088;-74
2024/01/02 11:34:15;;;;;;;5.60;1.80;;;;;;;;;;5131267;27;20043;-82
2024/01/02 11:37:22;;;;;;;6.82;2.00;;;;;;;;;;5130062;27;20074;-74
2024/01/02 11:40:19;;;;;;;5.13;1.80;;;;;;;;;;5136890;27;20088;-71
2024/01/02 11:42:51;;;;;;;7.65;1.98;;;;;;;;;;5133680;27;20054;-72
2024/01/02 11:45:22;;;;;;;8.05;1.70;;;;;;;;;;5141958;27;20043;-73
2024/01/02 11:48:27;;;;;;;6.95;1.85;;;;;;;;;;5139985;27;20122;-79
2024/01/02 11:51:09;;;;;;;5.90;2.45;;;;;;;;;;5121489;27;20047;-79
2024/01/02 11:54:10;;;;;;;5.38;1.65;;;;;;;;;;5141810;27;20057;-78
2024/01/02 11:56:37;;;;;;;;;;;;;;;;;;5134828;27;20047;-78
2024/01/02 11:59:18;;;;;;;4.53;1.50;;;;;;;;;;5140992;27;19952;-80
2024/01/02 12:01:53;;;;;;;2.90;1.30;;;;;;;;;;5139487;27;20244;-78
2024/01/02 12:04:34;;;;;;;5.25;1.60;;;;;;;;;;5137601;27;20335;-76
2024/01/02 12:07:12;;;;;;;5.53;1.98;;;;;;;;;;5141718;27;20126;-74
2024/01/02 12:09:42;;;;;;;8.07;2.63;;;;;;;;;;5135926;27;20256;-70
2024/01/02 12:12:46;;;;;;;5.43;1.80;;;;;;;;;;5131157;27;20051;-79
2024/01/02 12:15:34;;;;;;;4.65;1.70;;;;;;;;;;5138566;27;20047;-76
2024/01/02 12:18:06;;;;;;;3.08;1.40;;;;;;;;;;5139802;27;20054;-70
2024/01/02 12:20:40;;;;;;;5.57;1.48;;;;;;;;;;5133352;27;20043;-72
2024/01/02 12:23:08;;;;;;;3.03;1.30;;;;;;;;;;5131671;27;20051;-75
2024/01/02 12:25:37;;;;;;;3.22;1.38;;;;;;;;;;5132990;27;20418;-73
2024/01/02 12:28:05;;;;;;;4.82;1.48;;;;;;;;;;5135499;27;20354;-73
2024/01/02 12:30:43;;;;;;;5.20;1.50;;;;;;;;;;5135909;27;20039;-72
2024/01/02 12:33:24;;;;;;;6.82;1.70;;;;;;;;;;5133934;27;20100;-77
2024/01/02 12:36:00;;;;;;;6.55;1.63;;;;;;;;;;5121120;27;20047;-75
2024/01/02 12:38:39;;;;;;;6.40;1.63;;;;;;;;;;5139194;27;20114;-72
2024/01/02 12:41:10;;;;;;;4.47;2.05;;;;;;;;;;5113823;27;20047;-71
2024/01/02 12:43:38;;;;;;;;;;;;;;;;;;5132921;27;20047;-76
2024/01/02 12:46:19;;;;;;;4.38;1.65;;;;;;;;;;5141785;27;20225;-72
2024/01/02 12:49:07;;;;;;;2.67;1.73;;;;;;;;;;5142294;27;20047;-73
2024/01/02 12:51:43;;;;;;;4.90;1.83;;;;;;;;;;5140716;27;20043;-77
2024/01/02 12:54:12;;;;;;;7.13;2.13;;;;;;;;;;5141516;27;20102;-73
2024/01/02 12:56:42;;;;;;;7.47;2.17;;;;;;;;;;5137111;27;20050;-73
2024/01/02 12:59:09;;;;;;;5.47;1.60;;;;;;;;;;5129871;27;20047;-73
2024/01/02 13:01:36;;;;;;;8.98;2.10;;;;;;;;;;5134111;27;20043;-72
2024/01/02 13:04:12;;;;;;;6.75;2.10;;;;;;;;;;5129366;27;20356;-72
2024/01/02 13:06:39;;;;;;;3.72;1.77;;;;;;;;;;5132179;27;20043;-73
2024/01/02 13:09:10;;;;;;;6.60;2.35;;;;;;;;;;5130999;27;20039;-73
2024/01/02 13:11:38;;;;;;;6.65;2.22;;;;;;;;;;5135581;27;20047;-72
2024/01/02 13:14:09;;;;;;;5.85;2.22;;;;;;;;;;5135456;27;20047;-73
2024/01/02 13:16:38;;;;;;;3.67;1.48;;;;;;;;;;5128542;27;20039;-72
2024/01/02 13:19:14;;;;;;;5.07;2.17;;;;;;;;;;5138540;27;20067;-72
2024/01/02 13:21:42;;;;;;;6.10;2.03;;;;;;;;;;5121582;28;20048;-72
2024/01/02 13:24:10;;;;;;;5.50;2.35;;;;;;;;;;5119973;28;20040;-72
2024/01/02 13:26:44;;;;;;;4.72;2.33;;;;;;;;;;5121601;28;20043;-71
2024/01/02 13:29:13;;;;;;;5.80;2.15;;;;;;;;;;5103467;28;20048;-71
2024/01/02 13:31:44;;;;;;;5.15;1.80;;;;;;;;;;5121504;28;20043;-73
2024/01/02 13:34:27;;;;;;;5.07;2.55;;;;;;;;;;5115148;28;20053;-72
2024/01/02 13:36:57;;;;;;;7.88;2.70;;;;;;;;;;5110862;28;20142;-73
2024/01/02 13:39:36;;;;;;;6.17;2.23;;;;;;;;;;5111869;28;20051;-71
2024/01/02 13:42:03;;;;;;;6.35;2.38;;;;;;;;;;5108729;28;20048;-73
2024/01/02 13:44:35;;;;;;;6.32;2.28;;;;;;;;;;5122073;27;20066;-71
2024/01/02 13:47:04;;;;;;;6.88;2.40;;;;;;;;;;5139157;27;20275;-72
2024/01/02 13:49:51;;;;;;;8.77;2.35;;;;;;;;;;5119192;28;20051;-69
2024/01/02 13:52:25;;;;;;;6.60;2.38;;;;;;;;;;5126642;27;20054;-72
2024/01/02 13:54:55;;;;;;;4.85;2.40;;;;;;;;;;5130423;27;20051;-69
2024/01/02 13:57:29;;;;;;;;;;;;;;;;;;5136434;27;20043;-71
2024/01/02 14:00:09;;;;;;;6.68;2.05;;;;;;;;;;5134901;28;19930;-70
2024/01/02 14:02:37;;;;;;;5.93;2.38;;;;;;;;;;5131196;28;20051;-72
2024/01/02 14:05:06;;;;;;;10.35;3.50;;;;;;;;;;5113807;28;20051;-70
2024/01/02 14:07:39;;;;;;;8.48;2.75;;;;;;;;;;5134928;28;20134;-69
2024/01/02 14:10:06;;;;;;;5.30;2.55;;;;;;;;;;5141621;28;20043;-72
2024/01/02 14:12:38;;;;;;;5.97;2.50;;;;;;;;;;5141313;28;20050;-71
2024/01/02 14:15:12;;;;;;;4.85;2.40;;;;;;;;;;5141873;28;20043;-72
2024/01/02 14:17:41;;;;;;;6.13;2.33;;;;;;;;;;5141934;28;20043;-71
2024/01/02 14:20:14;;;;;;;4.95;1.90;;;;;;;;;;5143909;27;20066;-75
2024/01/02 14:22:54;;;;;;;6.88;2.70;;;;;;;;;;5144331;27;20043;-71
2024/01/02 14:25:44;;;;;;;4.03;1.93;;;;;;;;;;5145272;27;20066;-69
2024/01/02 14:28:21;;;;;;;5.72;2.10;;;;;;;;;;5144783;27;20049;-70
2024/01/02 14:31:09;;;;;;;4.75;2.35;;;;;;;;;;5143945;27;20051;-73
2024/01/02 14:33:48;;;;;;;4.35;1.83;;;;;;;;;;5144424;27;20047;-71
2024/01/02 14:36:35;;;;;;;4.07;1.80;;;;;;;;;;5144768;27;20071;-70
2024/01/02 14:39:26;;;;;;;4.43;2.08;;;;;;;;;;5145432;27;20219;-71
2024/01/02 14:42:27;;;;;;;5.65;2.28;;;;;;;;;;5145803;27;20118;-70
2024/01/02 14:45:09;;;;;;;7.70;2.50;;;;;;;;;;5145603;27;20043;-70
2024/01/02 14:48:06;;;;;;;4.68;2.50;;;;;;;;;;5126914;27;20050;-70
2024/01/02 14:50:49;;;;;;;8.73;2.05;;;;;;;;;;5144856;27;20047;-70
2024/01/02 14:53:28;;;;;;;9.30;2.58;;;;;;;;;;5144500;27;20110;-70
2024/01/02 14:56:14;;;;;;;8.13;2.97;;;;;;;;;;5123793;28;20051;-71
2024/01/02 14:59:02;;;;;;;8.52;3.08;;;;;;;;;;5123834;28;20074;-70
2024/01/02 15:01:43;;;;;;;6.60;2.20;;;;;;;;;;5123899;28;20219;-72
2024/01/02 15:04:24;;;;;;;;;;;;;;;;;;5123754;28;20587;-70
2024/01/02 15:06:56;;;;;;;3.47;1.88;;;;;;;;;;5123266;28;20214;-71
2024/01/02 15:09:34;;;;;;;4.82;2.10;;;;;;;;;;5123301;28;20039;-71